createdAt,value
2022-09-15T00:00:09.730Z,99016.75
2022-09-15T00:00:41.141Z,99017.53
2022-09-15T00:01:12.579Z,99014.81
2022-09-15T00:01:44.050Z,99018.34
2022-09-15T00:02:15.548Z,99017.53
2022-09-15T00:02:47.151Z,99014.00
2022-09-15T00:03:18.710Z,99013.19
2022-09-15T00:03:50.166Z,99011.28
2022-09-15T00:04:21.660Z,99017.06
2022-09-15T00:04:53.077Z,99012.41
2022-09-15T00:05:24.521Z,99019.81
2022-09-15T00:05:55.969Z,99021.72
2022-09-15T00:06:27.409Z,99016.25
2022-09-15T00:06:58.858Z,99020.94
2022-09-15T00:07:30.259Z,99020.13
2022-09-15T00:08:01.739Z,99019.81
2022-09-15T00:08:33.241Z,99022.84
2022-09-15T00:09:04.651Z,99018.19
2022-09-15T00:09:36.121Z,99019.81
2022-09-15T00:10:07.561Z,99016.59
2022-09-15T00:10:39.005Z,99006.44
2022-09-15T00:11:10.466Z,99013.03
2022-09-15T00:11:41.865Z,99014.97
2022-09-15T00:12:13.281Z,99014.19
2022-09-15T00:12:44.698Z,99007.91
2022-09-15T00:13:16.198Z,99017.72
2022-09-15T00:13:47.625Z,99020.44
2022-09-15T00:14:19.046Z,99017.06
2022-09-15T00:14:50.646Z,99014.31
2022-09-15T00:15:22.053Z,99015.13
2022-09-15T00:15:53.565Z,99015.47
2022-09-15T00:16:25.013Z,99022.84
2022-09-15T00:16:56.568Z,99020.59
2022-09-15T00:17:27.983Z,99013.19
2022-09-15T00:17:59.425Z,99015.59
2022-09-15T00:18:30.821Z,99016.75
2022-09-15T00:19:02.665Z,99020.28
2022-09-15T00:19:34.155Z,99019.16
2022-09-15T00:20:05.608Z,99021.88
2022-09-15T00:20:36.982Z,99019.16
2022-09-15T00:21:08.471Z,99017.22
2022-09-15T00:21:39.914Z,99015.59
2022-09-15T00:22:11.304Z,99012.56
2022-09-15T00:22:42.742Z,99012.06
2022-09-15T00:23:14.173Z,99019.16
2022-09-15T00:23:45.585Z,99018.03
2022-09-15T00:24:17.020Z,99010.94
2022-09-15T00:24:48.445Z,99018.81
2022-09-15T00:25:19.947Z,99013.69
2022-09-15T00:25:51.394Z,99010.63
2022-09-15T00:26:22.872Z,99009.00
2022-09-15T00:26:54.306Z,99002.75
2022-09-15T00:27:25.691Z,99014.47
2022-09-15T00:27:57.169Z,99009.81
2022-09-15T00:28:28.570Z,99005.47
2022-09-15T00:29:00.014Z,99005.16
2022-09-15T00:29:31.408Z,99002.75
2022-09-15T00:30:03.976Z,99006.59
2022-09-15T00:30:35.406Z,99001.13
2022-09-15T00:31:06.904Z,99005.47
2022-09-15T00:31:38.696Z,99007.09
2022-09-15T00:32:10.174Z,99005.47
2022-09-15T00:32:44.588Z,99000.47
2022-09-15T00:33:16.068Z,99004.34
2022-09-15T00:33:47.448Z,99007.09
2022-09-15T00:34:18.898Z,99006.28
2022-09-15T00:34:50.542Z,99009.00
2022-09-15T00:35:22.049Z,99005.16
2022-09-15T00:35:53.503Z,98997.59
2022-09-15T00:36:24.928Z,99007.09
2022-09-15T00:36:56.396Z,99009.00
2022-09-15T00:37:27.804Z,99014.47
2022-09-15T00:37:59.243Z,99005.94
2022-09-15T00:38:30.988Z,99009.50
2022-09-15T00:39:02.461Z,99013.03
2022-09-15T00:39:33.941Z,99011.41
2022-09-15T00:40:05.419Z,99005.16
2022-09-15T00:40:36.946Z,99013.34
2022-09-15T00:41:08.398Z,99010.63
2022-09-15T00:41:39.860Z,99011.75
2022-09-15T00:42:11.267Z,99012.22
2022-09-15T00:42:42.732Z,99011.75
2022-09-15T00:43:14.140Z,99015.28
2022-09-15T00:43:45.535Z,99014.47
2022-09-15T00:44:16.911Z,99011.75
2022-09-15T00:44:48.375Z,99012.56
2022-09-15T00:45:19.767Z,99013.69
2022-09-15T00:45:51.343Z,99005.47
2022-09-15T00:46:22.893Z,99012.88
2022-09-15T00:47:15.357Z,99013.69
2022-09-15T00:47:45.786Z,99012.06
2022-09-15T00:48:17.213Z,99012.88
2022-09-15T00:48:48.593Z,99017.53
2022-09-15T00:49:19.980Z,99012.06
2022-09-15T00:49:53.914Z,99015.28
2022-09-15T00:50:27.294Z,99015.94
2022-09-15T00:50:58.763Z,99016.41
2022-09-15T00:51:30.298Z,99018.03
2022-09-15T00:52:01.748Z,99017.53
2022-09-15T00:52:33.155Z,99012.88
2022-09-15T00:53:04.554Z,99016.88
2022-09-15T00:53:36.251Z,99014.81
2022-09-15T00:54:07.729Z,99012.88
2022-09-15T00:54:39.228Z,99016.75
2022-09-15T00:55:10.656Z,99012.88
2022-09-15T00:55:42.064Z,99015.28
2022-09-15T00:56:13.577Z,99021.56
2022-09-15T00:56:45.031Z,99014.00
2022-09-15T00:57:16.516Z,99011.28
2022-09-15T00:57:47.902Z,99015.28
2022-09-15T00:58:19.309Z,99015.28
2022-09-15T00:58:50.681Z,99009.81
2022-09-15T00:59:22.144Z,99008.22
2022-09-15T00:59:53.531Z,99010.94
2022-09-15T01:00:24.955Z,99013.34
2022-09-15T01:00:56.360Z,99018.03
2022-09-15T01:01:27.926Z,99009.81
2022-09-15T01:01:59.440Z,99009.50
2022-09-15T01:02:31.002Z,99010.63
2022-09-15T01:03:02.532Z,99015.28
2022-09-15T01:03:33.942Z,99007.09
2022-09-15T01:04:05.349Z,99013.69
2022-09-15T01:04:36.823Z,99019.94
2022-09-15T01:05:08.196Z,99015.28
2022-09-15T01:05:39.758Z,99023.50
2022-09-15T01:06:11.223Z,99019.16
2022-09-15T01:06:42.675Z,99014.81
2022-09-15T01:07:14.117Z,99012.88
2022-09-15T01:07:45.578Z,99015.28
2022-09-15T01:08:17.011Z,99014.47
2022-09-15T01:08:48.448Z,99013.69
2022-09-15T01:09:19.865Z,99011.28
2022-09-15T01:09:51.263Z,99017.53
2022-09-15T01:10:22.830Z,99011.28
2022-09-15T01:10:54.287Z,99015.28
2022-09-15T01:11:25.679Z,99008.22
2022-09-15T01:11:57.135Z,99012.88
2022-09-15T01:12:28.551Z,99013.69
2022-09-15T01:12:59.979Z,99010.94
2022-09-15T01:13:31.463Z,99019.94
2022-09-15T01:14:02.906Z,99011.75
2022-09-15T01:14:34.351Z,99011.28
2022-09-15T01:15:05.748Z,99016.41
2022-09-15T01:15:37.205Z,99008.22
2022-09-15T01:16:08.711Z,99010.47
2022-09-15T01:16:40.226Z,99010.47
2022-09-15T01:17:11.724Z,99010.94
2022-09-15T01:17:43.113Z,99014.47
2022-09-15T01:18:14.614Z,99013.34
2022-09-15T01:18:46.068Z,99012.88
2022-09-15T01:19:17.459Z,99016.41
2022-09-15T01:19:48.917Z,99014.00
2022-09-15T01:20:20.320Z,99012.88
2022-09-15T01:20:51.834Z,99010.94
2022-09-15T01:21:23.243Z,99015.28
2022-09-15T01:21:58.601Z,99018.03
2022-09-15T01:22:30.343Z,99023.00
2022-09-15T01:23:01.738Z,99016.75
2022-09-15T01:23:33.174Z,99017.06
2022-09-15T01:24:04.593Z,99015.59
2022-09-15T01:24:36.069Z,99015.59
2022-09-15T01:25:07.471Z,99018.34
2022-09-15T01:25:38.921Z,99016.41
2022-09-15T01:26:10.360Z,99021.06
2022-09-15T01:26:41.794Z,99017.88
2022-09-15T01:27:37.614Z,99021.72
2022-09-15T01:28:04.713Z,99019.47
2022-09-15T01:28:36.175Z,99017.53
2022-09-15T01:29:07.581Z,99017.22
2022-09-15T01:29:39.120Z,99006.13
2022-09-15T01:30:10.564Z,99007.72
2022-09-15T01:30:41.996Z,99006.94
2022-09-15T01:31:13.470Z,99006.13
2022-09-15T01:31:44.973Z,99015.13
2022-09-15T01:32:16.428Z,99008.84
2022-09-15T01:32:47.838Z,99014.31
2022-09-15T01:33:19.269Z,99008.84
2022-09-15T01:33:50.675Z,99012.72
2022-09-15T01:34:22.170Z,99012.72
2022-09-15T01:34:53.678Z,99017.53
2022-09-15T01:35:25.055Z,99012.06
2022-09-15T01:35:56.469Z,99001.13
2022-09-15T01:36:27.981Z,99008.84
2022-09-15T01:36:59.412Z,99009.19
2022-09-15T01:37:30.867Z,99002.25
2022-09-15T01:38:02.344Z,99005.78
2022-09-15T01:38:33.888Z,99010.47
2022-09-15T01:39:05.311Z,99009.66
2022-09-15T01:39:36.776Z,99006.13
2022-09-15T01:40:08.282Z,99003.72
2022-09-15T01:40:39.858Z,99012.72
2022-09-15T01:41:11.274Z,99002.59
2022-09-15T01:41:42.820Z,99013.19
2022-09-15T01:42:14.240Z,99008.06
2022-09-15T01:42:45.643Z,99004.03
2022-09-15T01:43:17.064Z,99005.66
2022-09-15T01:43:48.470Z,99007.25
2022-09-15T01:44:19.870Z,99006.44
2022-09-15T01:44:51.333Z,99000.97
2022-09-15T01:45:22.873Z,99005.66
2022-09-15T01:45:54.326Z,99007.25
2022-09-15T01:46:25.754Z,99003.38
2022-09-15T01:46:57.352Z,99001.78
2022-09-15T01:47:28.779Z,99000.66
2022-09-15T01:48:00.191Z,98998.72
2022-09-15T01:48:31.579Z,98996.78
2022-09-15T01:49:02.971Z,98997.13
2022-09-15T01:49:34.487Z,98996.63
2022-09-15T01:50:05.855Z,99000.19
2022-09-15T01:50:37.333Z,98997.91
2022-09-15T01:51:08.790Z,98996.78
2022-09-15T01:51:40.234Z,98997.91
2022-09-15T01:52:11.692Z,98996.31
2022-09-15T01:52:43.085Z,99001.78
2022-09-15T01:53:14.491Z,98998.56
2022-09-15T01:53:45.911Z,98996.97
2022-09-15T01:54:17.311Z,98996.63
2022-09-15T01:54:48.763Z,98995.19
2022-09-15T01:55:20.174Z,98995.19
2022-09-15T01:55:51.625Z,99005.31
2022-09-15T01:56:23.020Z,99000.97
2022-09-15T01:56:54.465Z,99005.66
2022-09-15T01:57:25.953Z,99002.25
2022-09-15T01:57:57.332Z,99008.84
2022-09-15T01:58:28.968Z,98998.25
2022-09-15T01:59:00.387Z,99001.78
2022-09-15T01:59:31.897Z,99002.59
2022-09-15T02:00:05.045Z,98998.72
2022-09-15T02:00:36.454Z,99012.72
2022-09-15T02:01:07.983Z,99004.53
2022-09-15T02:01:39.716Z,99004.84
2022-09-15T02:02:11.328Z,99001.78
2022-09-15T02:02:42.887Z,98998.25
2022-09-15T02:03:17.404Z,98995.84
2022-09-15T02:03:48.804Z,99001.31
2022-09-15T02:04:20.344Z,99003.25
2022-09-15T02:04:51.746Z,98991.50
2022-09-15T02:05:23.218Z,98995.84
2022-09-15T02:05:54.629Z,99011.91
2022-09-15T02:06:26.049Z,99002.44
2022-09-15T02:06:57.499Z,99004.03
2022-09-15T02:07:28.971Z,99002.09
2022-09-15T02:08:00.408Z,98999.69
2022-09-15T02:08:31.912Z,99000.50
2022-09-15T02:09:03.438Z,99004.38
2022-09-15T02:09:34.824Z,99003.25
2022-09-15T02:10:06.222Z,99005.66
2022-09-15T02:10:37.642Z,99010.00
2022-09-15T02:11:09.121Z,99004.03
2022-09-15T02:11:40.565Z,99007.25
2022-09-15T02:12:11.992Z,99002.91
2022-09-15T02:12:43.471Z,99005.97
2022-09-15T02:13:14.874Z,98999.38
2022-09-15T02:13:46.305Z,99007.56
2022-09-15T02:14:17.811Z,98999.38
2022-09-15T02:14:49.194Z,99012.72
2022-09-15T02:15:20.670Z,99004.53
2022-09-15T02:15:52.099Z,99007.25
2022-09-15T02:16:23.590Z,99007.25
2022-09-15T02:16:55.074Z,99004.84
2022-09-15T02:17:26.624Z,99000.97
2022-09-15T02:17:58.093Z,99004.53
2022-09-15T02:18:29.529Z,98997.13
2022-09-15T02:19:00.923Z,98999.06
2022-09-15T02:19:32.338Z,99002.59
2022-09-15T02:20:03.764Z,98996.31
2022-09-15T02:20:35.193Z,99003.72
2022-09-15T02:21:06.644Z,99002.59
2022-09-15T02:21:38.262Z,98997.91
2022-09-15T02:22:09.868Z,98995.19
2022-09-15T02:22:41.301Z,99005.00
2022-09-15T02:23:12.762Z,99001.47
2022-09-15T02:23:44.208Z,99004.19
2022-09-15T02:24:15.681Z,99003.06
2022-09-15T02:24:47.196Z,99001.78
2022-09-15T02:25:18.666Z,99008.84
2022-09-15T02:25:50.125Z,99001.78
2022-09-15T02:26:21.560Z,98997.91
2022-09-15T02:26:52.938Z,99009.19
2022-09-15T02:27:24.431Z,98999.53
2022-09-15T02:27:55.938Z,99004.19
2022-09-15T02:28:27.382Z,98999.53
2022-09-15T02:28:58.806Z,99005.00
2022-09-15T02:29:30.215Z,99000.66
2022-09-15T02:30:01.786Z,99001.78
2022-09-15T02:30:33.282Z,99000.97
2022-09-15T02:31:04.741Z,98999.06
2022-09-15T02:31:36.264Z,99000.19
2022-09-15T02:32:07.827Z,99001.78
2022-09-15T02:32:39.373Z,99004.53
2022-09-15T02:33:10.822Z,98999.06
2022-09-15T02:33:42.215Z,99006.44
2022-09-15T02:34:13.602Z,99003.25
2022-09-15T02:34:45.030Z,99008.06
2022-09-15T02:35:16.450Z,99006.44
2022-09-15T02:35:47.887Z,99009.19
2022-09-15T02:36:19.296Z,99012.72
2022-09-15T02:36:50.793Z,99012.72
2022-09-15T02:37:22.243Z,99013.84
2022-09-15T02:37:53.692Z,99016.25
2022-09-15T02:38:25.144Z,99006.44
2022-09-15T02:38:56.595Z,99003.72
2022-09-15T02:39:28.042Z,99007.25
2022-09-15T02:39:59.560Z,99012.72
2022-09-15T02:40:31.140Z,99008.06
2022-09-15T02:41:02.741Z,99009.50
2022-09-15T02:41:34.237Z,99010.78
2022-09-15T02:42:05.711Z,99011.59
2022-09-15T02:42:37.250Z,99013.53
2022-09-15T02:43:08.740Z,99011.13
2022-09-15T02:43:40.200Z,99011.91
2022-09-15T02:44:11.618Z,99007.56
2022-09-15T02:44:43.027Z,99019.00
2022-09-15T02:45:14.458Z,99015.78
2022-09-15T02:45:45.966Z,99011.44
2022-09-15T02:46:17.450Z,99011.13
2022-09-15T02:46:48.942Z,99016.59
2022-09-15T02:47:20.405Z,99015.78
2022-09-15T02:47:51.863Z,99013.84
2022-09-15T02:48:23.267Z,99011.13
2022-09-15T02:48:54.696Z,99011.91
2022-09-15T02:49:26.068Z,99011.91
2022-09-15T02:49:57.534Z,99013.53
2022-09-15T02:50:29.085Z,99012.72
2022-09-15T02:51:00.477Z,99011.59
2022-09-15T02:51:31.964Z,99010.47
2022-09-15T02:52:03.405Z,99016.25
2022-09-15T02:52:34.986Z,99010.78
2022-09-15T02:53:06.439Z,99013.53
2022-09-15T02:53:37.952Z,99015.47
2022-09-15T02:54:09.427Z,99014.31
2022-09-15T02:54:40.874Z,99014.31
2022-09-15T02:55:12.281Z,99014.31
2022-09-15T02:55:43.689Z,99010.47
2022-09-15T02:56:15.087Z,99018.66
2022-09-15T02:56:46.501Z,99010.47
2022-09-15T02:57:17.892Z,99012.72
2022-09-15T02:57:49.342Z,99015.31
2022-09-15T02:58:20.733Z,99013.03
2022-09-15T02:58:52.168Z,99013.03
2022-09-15T02:59:23.573Z,99016.91
2022-09-15T02:59:55.044Z,99007.56
2022-09-15T03:00:26.501Z,99012.25
2022-09-15T03:00:57.920Z,99005.66
2022-09-15T03:01:29.544Z,99014.66
2022-09-15T03:02:00.998Z,99011.44
2022-09-15T03:02:32.505Z,99005.16
2022-09-15T03:03:03.923Z,99007.09
2022-09-15T03:03:36.469Z,99013.03
2022-09-15T03:04:10.229Z,99006.78
2022-09-15T03:04:41.649Z,99004.84
2022-09-15T03:05:13.079Z,99010.31
2022-09-15T03:05:44.585Z,99002.44
2022-09-15T03:06:16.011Z,99005.66
2022-09-15T03:06:47.559Z,99009.19
2022-09-15T03:07:18.976Z,99011.44
2022-09-15T03:07:50.526Z,99015.78
2022-09-15T03:08:21.966Z,99007.91
2022-09-15T03:08:53.341Z,99007.91
2022-09-15T03:09:24.753Z,99009.50
2022-09-15T03:09:56.137Z,99010.63
2022-09-15T03:10:27.613Z,99015.31
2022-09-15T03:10:59.048Z,99014.50
2022-09-15T03:11:30.503Z,99007.91
2022-09-15T03:12:01.984Z,99014.97
2022-09-15T03:12:33.404Z,99014.97
2022-09-15T03:13:04.862Z,99012.25
2022-09-15T03:13:36.274Z,99019.66
2022-09-15T03:14:07.728Z,99013.84
2022-09-15T03:14:39.271Z,99014.97
2022-09-15T03:15:10.698Z,99015.78
2022-09-15T03:15:42.220Z,99013.38
2022-09-15T03:16:13.681Z,99014.97
2022-09-15T03:16:45.318Z,99018.84
2022-09-15T03:17:16.750Z,99017.22
2022-09-15T03:17:48.237Z,99010.97
2022-09-15T03:18:19.630Z,99018.84
2022-09-15T03:18:51.072Z,99021.25
2022-09-15T03:19:22.515Z,99021.91
2022-09-15T03:19:53.938Z,99024.63
2022-09-15T03:20:25.366Z,99014.50
2022-09-15T03:20:56.806Z,99021.91
2022-09-15T03:21:28.271Z,99016.44
2022-09-15T03:21:59.704Z,99014.50
2022-09-15T03:22:31.117Z,99015.63
2022-09-15T03:23:02.637Z,99015.63
2022-09-15T03:23:34.048Z,99020.28
2022-09-15T03:24:05.574Z,99023.19
2022-09-15T03:24:36.992Z,99025.91
2022-09-15T03:25:08.430Z,99017.72
2022-09-15T03:25:39.897Z,99022.06
2022-09-15T03:26:11.355Z,99018.84
2022-09-15T03:26:42.874Z,99025.91
2022-09-15T03:27:14.396Z,99021.56
2022-09-15T03:27:45.965Z,99022.06
2022-09-15T03:28:17.340Z,99024.31
2022-09-15T03:28:48.813Z,99024.78
2022-09-15T03:29:20.195Z,99025.91
2022-09-15T03:29:51.645Z,99026.72
2022-09-15T03:30:23.091Z,99020.44
2022-09-15T03:30:54.526Z,99022.84
2022-09-15T03:31:26.019Z,99031.06
2022-09-15T03:31:57.582Z,99020.44
2022-09-15T03:32:29.076Z,99023.19
2022-09-15T03:33:00.508Z,99024.31
2022-09-15T03:33:31.923Z,99018.84
2022-09-15T03:34:03.504Z,99018.84
2022-09-15T03:34:34.890Z,99023.19
2022-09-15T03:35:06.302Z,99022.22
2022-09-15T03:35:37.763Z,99024.97
2022-09-15T03:36:09.254Z,99027.53
2022-09-15T03:36:40.813Z,99022.06
2022-09-15T03:37:12.266Z,99023.97
2022-09-15T03:37:43.775Z,99026.25
2022-09-15T03:38:15.357Z,99026.25
2022-09-15T03:38:46.812Z,99024.78
2022-09-15T03:39:18.347Z,99028.97
2022-09-15T03:39:49.856Z,99024.31
2022-09-15T03:40:21.405Z,99015.63
2022-09-15T03:40:52.817Z,99022.69
2022-09-15T03:41:25.073Z,99023.97
2022-09-15T03:41:56.532Z,99029.78
2022-09-15T03:42:27.955Z,99027.84
2022-09-15T03:42:59.435Z,99025.13
2022-09-15T03:43:30.929Z,99030.25
2022-09-15T03:44:02.327Z,99032.50
2022-09-15T03:44:33.840Z,99022.69
2022-09-15T03:45:08.377Z,99025.91
2022-09-15T03:45:39.863Z,99030.09
2022-09-15T03:46:11.346Z,99035.25
2022-09-15T03:46:42.837Z,99032.50
2022-09-15T03:47:14.257Z,99027.03
2022-09-15T03:47:45.738Z,99027.03
2022-09-15T03:48:17.189Z,99022.06
2022-09-15T03:48:48.721Z,99025.91
2022-09-15T03:49:20.133Z,99025.13
2022-09-15T03:49:51.506Z,99024.63
2022-09-15T03:50:22.962Z,99030.91
2022-09-15T03:50:54.356Z,99021.91
2022-09-15T03:51:25.824Z,99023.84
2022-09-15T03:51:57.239Z,99029.78
2022-09-15T03:52:28.682Z,99031.38
2022-09-15T03:53:00.108Z,99021.56
2022-09-15T03:53:31.510Z,99027.84
2022-09-15T03:54:03.171Z,99022.06
2022-09-15T03:54:34.642Z,99027.03
2022-09-15T03:55:06.070Z,99025.91
2022-09-15T03:55:37.462Z,99024.78
2022-09-15T03:56:08.905Z,99023.50
2022-09-15T03:56:40.321Z,99024.31
2022-09-15T03:57:11.756Z,99022.69
2022-09-15T03:57:43.248Z,99025.91
2022-09-15T03:58:14.669Z,99024.47
2022-09-15T03:58:46.106Z,99029.13
2022-09-15T03:59:17.549Z,99027.19
2022-09-15T03:59:49.049Z,99021.25
2022-09-15T04:00:20.526Z,99024.31
2022-09-15T04:00:52.048Z,99028.66
2022-09-15T04:01:23.624Z,99030.25
2022-09-15T04:01:55.258Z,99024.78
2022-09-15T04:02:27.097Z,99023.19
2022-09-15T04:02:58.716Z,99026.72
2022-09-15T04:03:30.205Z,99027.53
2022-09-15T04:04:01.722Z,99025.91
2022-09-15T04:04:33.176Z,99028.66
2022-09-15T04:05:04.709Z,99031.88
2022-09-15T04:05:36.107Z,99020.44
2022-09-15T04:06:07.565Z,99029.47
2022-09-15T04:06:39.305Z,99024.78
2022-09-15T04:07:10.825Z,99030.59
2022-09-15T04:07:42.248Z,99025.91
2022-09-15T04:08:13.731Z,99027.53
2022-09-15T04:08:45.247Z,99020.94
2022-09-15T04:09:16.726Z,99026.41
2022-09-15T04:09:48.134Z,99026.41
2022-09-15T04:10:19.523Z,99020.44
2022-09-15T04:10:51.018Z,99029.47
2022-09-15T04:11:22.428Z,99025.25
2022-09-15T04:11:53.943Z,99023.97
2022-09-15T04:12:25.368Z,99022.84
2022-09-15T04:12:56.780Z,99018.53
2022-09-15T04:13:28.835Z,99023.19
2022-09-15T04:14:00.398Z,99020.44
2022-09-15T04:14:31.805Z,99024.31
2022-09-15T04:15:04.097Z,99022.69
2022-09-15T04:15:35.591Z,99022.84
2022-09-15T04:16:07.041Z,99014.97
2022-09-15T04:16:38.754Z,99014.19
2022-09-15T04:17:10.265Z,99020.44
2022-09-15T04:17:41.934Z,99014.66
2022-09-15T04:18:13.334Z,99017.72
2022-09-15T04:18:44.756Z,99012.25
2022-09-15T04:19:16.166Z,99024.31
2022-09-15T04:19:47.606Z,99021.56
2022-09-15T04:20:19.099Z,99018.38
2022-09-15T04:20:50.532Z,99024.31
2022-09-15T04:21:21.951Z,99015.63
2022-09-15T04:21:53.476Z,99018.38
2022-09-15T04:22:24.891Z,99015.63
2022-09-15T04:22:56.350Z,99014.03
2022-09-15T04:23:27.778Z,99016.44
2022-09-15T04:23:59.196Z,99017.22
2022-09-15T04:24:30.692Z,99013.38
2022-09-15T04:25:02.120Z,99011.75
2022-09-15T04:25:33.762Z,99022.69
2022-09-15T04:26:05.187Z,99019.97
2022-09-15T04:26:36.747Z,99022.22
2022-09-15T04:27:08.162Z,99017.22
2022-09-15T04:27:39.858Z,99020.44
2022-09-15T04:28:11.254Z,99016.44
2022-09-15T04:28:42.770Z,99020.78
2022-09-15T04:29:14.172Z,99022.69
2022-09-15T04:29:45.594Z,99024.63
2022-09-15T04:30:17.027Z,99028.97
2022-09-15T04:30:48.442Z,99022.69
2022-09-15T04:31:19.930Z,99025.91
2022-09-15T04:31:51.496Z,99019.97
2022-09-15T04:32:22.877Z,99023.19
2022-09-15T04:32:54.344Z,99025.13
2022-09-15T04:33:25.778Z,99028.97
2022-09-15T04:33:57.198Z,99025.44
2022-09-15T04:34:28.611Z,99025.44
2022-09-15T04:35:02.340Z,99019.16
2022-09-15T04:35:33.843Z,99026.56
2022-09-15T04:36:05.280Z,99023.50
2022-09-15T04:36:36.705Z,99023.50
2022-09-15T04:37:08.451Z,99022.22
2022-09-15T04:37:39.872Z,99023.03
2022-09-15T04:38:11.335Z,99027.38
2022-09-15T04:38:42.781Z,99030.44
2022-09-15T04:39:14.236Z,99024.63
2022-09-15T04:39:45.667Z,99025.75
2022-09-15T04:40:17.204Z,99035.56
2022-09-15T04:40:48.623Z,99026.88
2022-09-15T04:41:20.095Z,99027.22
2022-09-15T04:41:51.521Z,99024.97
2022-09-15T04:42:22.968Z,99028.81
2022-09-15T04:42:54.405Z,99026.09
2022-09-15T04:43:25.794Z,99030.44
2022-09-15T04:43:57.202Z,99026.41
2022-09-15T04:44:28.858Z,99034.63
2022-09-15T04:45:00.282Z,99024.97
2022-09-15T04:45:34.441Z,99029.78
2022-09-15T04:46:05.893Z,99026.56
2022-09-15T04:46:37.371Z,99029.31
2022-09-15T04:47:08.928Z,99031.22
2022-09-15T04:47:40.379Z,99032.03
2022-09-15T04:48:11.788Z,99034.78
2022-09-15T04:48:43.189Z,99033.16
2022-09-15T04:49:14.586Z,99026.09
2022-09-15T04:49:46.018Z,99024.97
2022-09-15T04:50:17.493Z,99026.41
2022-09-15T04:50:48.969Z,99026.09
2022-09-15T04:51:20.399Z,99026.88
2022-09-15T04:51:51.902Z,99029.63
2022-09-15T04:52:23.361Z,99027.69
2022-09-15T04:52:55.086Z,99028.03
2022-09-15T04:53:26.520Z,99033.16
2022-09-15T04:53:57.986Z,99030.44
2022-09-15T04:54:29.379Z,99027.69
2022-09-15T04:55:00.811Z,99029.63
2022-09-15T04:55:32.301Z,99024.16
2022-09-15T04:56:03.713Z,99032.03
2022-09-15T04:56:35.163Z,99030.09
2022-09-15T04:57:06.657Z,99033.63
2022-09-15T04:57:38.357Z,99028.66
2022-09-15T04:58:12.664Z,99026.56
2022-09-15T04:58:44.081Z,99033.16
2022-09-15T04:59:15.607Z,99030.75
2022-09-15T04:59:47.085Z,99034.28
2022-09-15T05:00:18.497Z,99030.09
2022-09-15T05:00:49.943Z,99030.44
2022-09-15T05:01:21.488Z,99035.09
2022-09-15T05:01:53.082Z,99034.28
2022-09-15T05:02:24.694Z,99031.56
2022-09-15T05:02:56.236Z,99036.69
2022-09-15T05:03:27.669Z,99035.09
2022-09-15T05:03:59.076Z,99038.63
2022-09-15T05:04:30.496Z,99035.09
2022-09-15T05:05:01.985Z,99029.31
2022-09-15T05:05:33.417Z,99035.91
2022-09-15T05:06:04.875Z,99031.88
2022-09-15T05:06:36.305Z,99032.69
2022-09-15T05:07:07.772Z,99031.88
2022-09-15T05:07:42.273Z,99034.94
2022-09-15T05:08:13.940Z,99035.09
2022-09-15T05:08:45.494Z,99034.78
2022-09-15T05:09:16.921Z,99033.16
2022-09-15T05:09:48.404Z,99031.22
2022-09-15T05:10:19.878Z,99028.81
2022-09-15T05:10:51.556Z,99029.94
2022-09-15T05:11:22.994Z,99027.69
2022-09-15T05:11:54.397Z,99030.91
2022-09-15T05:12:25.881Z,99032.03
2022-09-15T05:12:57.341Z,99034.44
2022-09-15T05:13:28.924Z,99036.38
2022-09-15T05:14:00.337Z,99033.31
2022-09-15T05:14:31.787Z,99033.63
2022-09-15T05:15:03.674Z,99035.25
2022-09-15T05:15:35.332Z,99032.84
2022-09-15T05:16:06.933Z,99023.84
2022-09-15T05:16:38.664Z,99032.03
2022-09-15T05:17:10.136Z,99029.31
2022-09-15T05:17:41.608Z,99031.88
2022-09-15T05:18:13.077Z,99039.28
2022-09-15T05:18:44.566Z,99026.09
2022-09-15T05:19:16.029Z,99035.09
2022-09-15T05:19:47.461Z,99030.75
2022-09-15T05:20:18.905Z,99035.91
2022-09-15T05:20:50.381Z,99032.69
2022-09-15T05:21:21.767Z,99033.50
2022-09-15T05:21:53.188Z,99028.81
2022-09-15T05:22:24.669Z,99029.16
2022-09-15T05:22:56.073Z,99033.50
2022-09-15T05:23:27.588Z,99036.22
2022-09-15T05:23:59.082Z,99034.28
2022-09-15T05:24:30.565Z,99035.09
2022-09-15T05:25:01.977Z,99030.44
2022-09-15T05:25:33.505Z,99032.69
2022-09-15T05:26:04.897Z,99038.16
2022-09-15T05:26:36.338Z,99032.84
2022-09-15T05:27:07.748Z,99037.50
2022-09-15T05:27:39.302Z,99037.50
2022-09-15T05:28:10.752Z,99040.25
2022-09-15T05:28:42.184Z,99029.94
2022-09-15T05:29:13.670Z,99032.69
2022-09-15T05:29:45.077Z,99034.78
2022-09-15T05:30:36.890Z,99029.94
2022-09-15T05:31:07.996Z,99039.28
2022-09-15T05:31:39.839Z,99030.28
2022-09-15T05:32:11.316Z,99031.88
2022-09-15T05:32:42.722Z,99028.81
2022-09-15T05:33:14.188Z,99031.88
2022-09-15T05:33:45.585Z,99039.44
2022-09-15T05:34:16.977Z,99037.03
2022-09-15T05:34:48.397Z,99037.50
2022-09-15T05:35:19.845Z,99030.44
2022-09-15T05:35:51.376Z,99034.28
2022-09-15T05:36:22.821Z,99037.03
2022-09-15T05:36:54.253Z,99035.09
2022-09-15T05:37:25.662Z,99038.31
2022-09-15T05:37:57.212Z,99037.50
2022-09-15T05:38:28.602Z,99040.25
2022-09-15T05:38:59.987Z,99039.91
2022-09-15T05:39:31.445Z,99038.63
2022-09-15T05:40:08.102Z,99036.22
2022-09-15T05:40:40.023Z,99038.31
2022-09-15T05:41:11.431Z,99039.75
2022-09-15T05:41:42.849Z,99044.91
2022-09-15T05:42:14.255Z,99037.50
2022-09-15T05:42:45.660Z,99035.91
2022-09-15T05:43:17.098Z,99047.63
2022-09-15T05:43:48.612Z,99037.03
2022-09-15T05:44:20.044Z,99047.47
2022-09-15T05:44:51.467Z,99044.09
2022-09-15T05:45:22.940Z,99045.72
2022-09-15T05:45:54.373Z,99041.38
2022-09-15T05:46:25.922Z,99042.50
2022-09-15T05:46:57.535Z,99051.50
2022-09-15T05:47:29.014Z,99040.56
2022-09-15T05:48:00.466Z,99047.63
2022-09-15T05:48:31.977Z,99046.84
2022-09-15T05:49:03.536Z,99048.44
2022-09-15T05:49:35.018Z,99045.72
2022-09-15T05:50:06.435Z,99048.28
2022-09-15T05:50:37.904Z,99049.09
2022-09-15T05:51:12.280Z,99046.69
2022-09-15T05:51:43.949Z,99052.63
2022-09-15T05:52:15.364Z,99047.16
2022-09-15T05:52:46.762Z,99049.88
2022-09-15T05:53:18.138Z,99046.34
2022-09-15T05:53:49.597Z,99046.69
2022-09-15T05:54:21.119Z,99049.09
2022-09-15T05:54:56.930Z,99049.41
2022-09-15T05:55:30.350Z,99041.22
2022-09-15T05:56:01.709Z,99050.53
2022-09-15T05:56:33.181Z,99047.00
2022-09-15T05:57:04.622Z,99051.34
2022-09-15T05:57:36.207Z,99047.00
2022-09-15T05:58:07.603Z,99054.41
2022-09-15T05:58:39.086Z,99054.06
2022-09-15T05:59:10.587Z,99055.22
2022-09-15T05:59:42.032Z,99055.22
2022-09-15T06:00:13.469Z,99055.22
2022-09-15T06:00:44.896Z,99049.41
2022-09-15T06:01:16.473Z,99054.56
2022-09-15T06:01:47.964Z,99049.09
2022-09-15T06:02:19.496Z,99056.81
2022-09-15T06:02:50.983Z,99047.47
2022-09-15T06:03:23.834Z,99055.69
2022-09-15T06:03:57.845Z,99058.91
2022-09-15T06:04:29.275Z,99056.16
2022-09-15T06:05:00.708Z,99060.19
2022-09-15T06:05:32.125Z,99060.81
2022-09-15T06:06:03.628Z,99059.22
2022-09-15T06:06:35.102Z,99054.88
2022-09-15T06:07:06.561Z,99058.41
2022-09-15T06:07:37.978Z,99051.34
2022-09-15T06:08:12.153Z,99056.34
2022-09-15T06:08:44.437Z,99055.84
2022-09-15T06:09:16.401Z,99056.00
2022-09-15T06:09:47.900Z,99057.94
2022-09-15T06:10:19.288Z,99050.22
2022-09-15T06:10:50.764Z,99052.47
2022-09-15T06:11:22.220Z,99056.00